createdAt,value
2023-02-22T00:03:08.097Z,101587.09
2023-02-22T00:07:09.634Z,101585.22
2023-02-22T00:11:11.240Z,101587.03
2023-02-22T00:15:14.191Z,101578.81
2023-02-22T00:19:15.602Z,101584.78
2023-02-22T00:23:20.534Z,101578.81
2023-02-22T00:27:21.955Z,101575.41
2023-02-22T00:31:24.356Z,101575.63
2023-02-22T00:35:28.305Z,101575.47
2023-02-22T00:39:30.632Z,101574.47
2023-02-22T00:43:32.064Z,101576.31
2023-02-22T00:47:33.531Z,101580.56
2023-02-22T00:51:34.993Z,101575.47
2023-02-22T00:55:38.099Z,101575.38
2023-02-22T00:59:39.542Z,101576.16
2023-02-22T01:03:41.151Z,101591.84
2023-02-22T01:07:43.086Z,101579.47
2023-02-22T01:11:45.321Z,101574.72
2023-02-22T01:15:46.899Z,101583.59
2023-02-22T01:19:48.328Z,101581.47
2023-02-22T01:23:49.781Z,101583.53
2023-02-22T01:27:52.514Z,101582.31
2023-02-22T01:31:55.893Z,101572.38
2023-02-22T01:35:57.790Z,101577.66
2023-02-22T01:39:59.231Z,101574.84
2023-02-22T01:44:24.977Z,101577.06
2023-02-22T01:48:35.439Z,101571.47
2023-02-22T01:52:37.357Z,101572.63
2023-02-22T01:56:45.168Z,101568.13
2023-02-22T02:00:46.700Z,101565.41
2023-02-22T02:04:49.014Z,101566.03
2023-02-22T02:09:02.602Z,101565.97
2023-02-22T02:13:04.357Z,101557.84
2023-02-22T02:17:09.791Z,101548.06
2023-02-22T02:21:54.742Z,101555.91
2023-02-22T02:26:28.477Z,101558.88
2023-02-22T02:30:53.499Z,101553.47
2023-02-22T02:35:12.242Z,101560.69
2023-02-22T02:39:43.491Z,101555.59
2023-02-22T02:43:54.126Z,101553.19
2023-02-22T02:47:58.919Z,101550.78
2023-02-22T02:52:02.605Z,101555.09
2023-02-22T02:56:04.891Z,101550.50
2023-02-22T03:00:22.532Z,101547.13
2023-02-22T03:04:48.771Z,101549.81
2023-02-22T03:09:02.341Z,101540.41
2023-02-22T03:13:30.295Z,101549.72
2023-02-22T03:17:54.148Z,101544.56
2023-02-22T03:22:01.016Z,101553.41
2023-02-22T03:26:13.066Z,101547.19
2023-02-22T03:30:40.013Z,101542.91
2023-02-22T03:34:50.645Z,101549.00
2023-02-22T03:38:57.587Z,101535.25
2023-02-22T03:43:06.777Z,101545.28
2023-02-22T03:47:18.389Z,101542.09
2023-02-22T03:51:21.390Z,101548.63
2023-02-22T03:55:28.863Z,101545.31
2023-02-22T03:59:30.877Z,101550.16
2023-02-22T04:03:32.333Z,101550.44
2023-02-22T04:07:34.660Z,101548.91
2023-02-22T04:11:36.243Z,101546.97
2023-02-22T04:15:38.576Z,101554.34
2023-02-22T04:19:45.038Z,101555.38
2023-02-22T04:23:48.196Z,101554.22
2023-02-22T04:27:50.377Z,101560.38
2023-02-22T04:31:55.853Z,101559.69
2023-02-22T04:36:00.226Z,101553.00
2023-02-22T04:40:02.321Z,101565.75
2023-02-22T04:44:05.053Z,101562.56
2023-02-22T04:48:07.195Z,101559.44
2023-02-22T04:52:08.672Z,101558.53
2023-02-22T04:56:12.694Z,101553.34
2023-02-22T05:00:21.617Z,101554.03
2023-02-22T05:04:23.417Z,101563.28
2023-02-22T05:08:24.881Z,101556.00
2023-02-22T05:12:27.413Z,101556.91
2023-02-22T05:16:28.937Z,101555.50
2023-02-22T05:20:33.478Z,101545.91
2023-02-22T05:24:35.064Z,101549.94
2023-02-22T05:28:36.530Z,101551.84
2023-02-22T05:32:37.956Z,101559.13
2023-02-22T05:36:39.420Z,101559.56
2023-02-22T05:40:41.975Z,101553.69
2023-02-22T05:44:44.010Z,101557.78
2023-02-22T05:48:45.474Z,101545.59
2023-02-22T05:52:48.814Z,101543.47
2023-02-22T05:56:50.238Z,101551.16
2023-02-22T06:00:51.781Z,101555.28
2023-02-22T06:04:53.253Z,101548.66
2023-02-22T06:08:54.689Z,101551.53
2023-02-22T06:12:56.788Z,101551.91
2023-02-22T06:16:59.168Z,101554.50
2023-02-22T06:21:01.266Z,101557.50
2023-02-22T06:25:04.449Z,101564.03
2023-02-22T06:29:06.028Z,101557.63
2023-02-22T06:33:09.425Z,101568.50
2023-02-22T06:37:10.867Z,101582.00
2023-02-22T06:41:12.307Z,101581.50
2023-02-22T06:45:13.760Z,101581.00
2023-02-22T06:49:15.265Z,101587.41
2023-02-22T06:53:16.701Z,101584.44
2023-02-22T06:57:18.582Z,101592.06
2023-02-22T07:01:20.322Z,101601.34
2023-02-22T07:05:23.651Z,101597.84
2023-02-22T07:09:25.241Z,101601.59
2023-02-22T07:13:26.717Z,101604.69
2023-02-22T07:17:28.221Z,101616.94
2023-02-22T07:21:30.835Z,101611.69
2023-02-22T07:25:32.416Z,101613.47
2023-02-22T07:29:36.017Z,101622.28
2023-02-22T07:33:37.415Z,101631.28
2023-02-22T07:37:38.834Z,101628.56
2023-02-22T07:41:40.290Z,101629.34
2023-02-22T07:46:00.110Z,101631.88
2023-02-22T07:50:01.663Z,101634.72
2023-02-22T07:54:03.128Z,101630.94
2023-02-22T07:58:07.647Z,101636.72
2023-02-22T08:02:15.916Z,101636.81
2023-02-22T08:06:17.975Z,101638.94
2023-02-22T08:10:22.247Z,101641.03
2023-02-22T08:14:23.722Z,101641.75
2023-02-22T08:18:25.775Z,101638.16
2023-02-22T08:22:29.013Z,101632.59
2023-02-22T08:26:30.448Z,101626.66
2023-02-22T08:30:34.868Z,101635.19
2023-02-22T08:34:36.437Z,101629.13
2023-02-22T08:38:38.306Z,101619.19
2023-02-22T08:42:39.767Z,101616.09
2023-02-22T08:46:41.196Z,101609.31
2023-02-22T09:02:24.987Z,101605.16
2023-02-22T09:06:26.449Z,101604.44
2023-02-22T09:10:30.708Z,101607.38
2023-02-22T09:14:34.454Z,101605.06
2023-02-22T09:18:44.022Z,101604.34
2023-02-22T09:22:49.365Z,101607.00
2023-02-22T09:26:56.203Z,101605.25
2023-02-22T09:30:58.528Z,101607.03
2023-02-22T09:34:59.977Z,101607.09
2023-02-22T09:39:02.024Z,101605.25
2023-02-22T09:43:18.253Z,101604.53
2023-02-22T09:47:32.267Z,101596.56
2023-02-22T09:51:45.497Z,101595.69
2023-02-22T09:55:50.877Z,101597.47
2023-02-22T10:00:13.512Z,101594.81
2023-02-22T10:04:24.421Z,101588.59
2023-02-22T10:08:31.295Z,101577.13
2023-02-22T10:12:48.484Z,101576.22
2023-02-22T10:17:17.417Z,101574.47
2023-02-22T10:21:36.839Z,101578.00
2023-02-22T10:25:39.454Z,101571.78
2023-02-22T10:29:45.512Z,101564.66
2023-02-22T10:33:51.559Z,101554.56
2023-02-22T10:37:59.164Z,101556.66
2023-02-22T10:42:06.731Z,101545.78
2023-02-22T10:46:13.753Z,101545.66
2023-02-22T10:50:16.056Z,101537.78
2023-02-22T10:54:27.234Z,101537.78
2023-02-22T10:58:28.887Z,101532.28
2023-02-22T11:02:32.909Z,101535.00
2023-02-22T11:06:35.276Z,101531.56
2023-02-22T11:10:38.661Z,101533.53
2023-02-22T11:14:40.115Z,101523.56
2023-02-22T11:18:41.674Z,101521.63
2023-02-22T11:22:43.163Z,101510.22
2023-02-22T11:26:49.055Z,101506.72
2023-02-22T11:30:51.915Z,101504.09
2023-02-22T11:35:15.416Z,101501.19
2023-02-22T11:39:24.494Z,101499.63
2023-02-22T11:43:26.047Z,101497.94
2023-02-22T11:47:27.496Z,101492.94
2023-02-22T11:51:59.763Z,101485.03
2023-02-22T11:56:35.714Z,101481.88
2023-02-22T12:00:53.982Z,101481.56
2023-02-22T12:05:19.391Z,101470.00
2023-02-22T12:09:51.580Z,101473.28
2023-02-22T12:14:14.412Z,101462.81
2023-02-22T12:18:42.669Z,101469.69
2023-02-22T12:22:53.417Z,101465.13
2023-02-22T12:27:05.657Z,101466.91
2023-02-22T12:31:25.658Z,101468.81
2023-02-22T12:35:30.313Z,101469.75
2023-02-22T12:39:53.535Z,101469.75
2023-02-22T12:44:04.039Z,101466.38
2023-02-22T12:48:31.981Z,101468.88
2023-02-22T12:52:46.870Z,101473.59
2023-02-22T12:56:59.500Z,101472.19
2023-02-22T13:01:07.034Z,101460.19
2023-02-22T13:05:15.506Z,101464.75
2023-02-22T13:10:01.936Z,101458.34
2023-02-22T13:14:03.337Z,101448.84
2023-02-22T13:18:12.357Z,101452.13
2023-02-22T13:22:35.479Z,101444.31
2023-02-22T13:27:00.334Z,101447.69
2023-02-22T13:31:24.016Z,101441.75
2023-02-22T13:35:29.547Z,101427.66
2023-02-22T13:39:55.400Z,101435.28
2023-02-22T13:44:15.187Z,101426.53
2023-02-22T13:48:54.359Z,101420.50
2023-02-22T13:52:58.078Z,101423.25
2023-02-22T13:57:02.942Z,101422.25
2023-02-22T14:01:04.406Z,101422.38
2023-02-22T14:05:34.995Z,101420.25
2023-02-22T14:09:48.224Z,101414.09
2023-02-22T14:13:57.016Z,101419.13
2023-02-22T14:18:05.010Z,101425.03
2023-02-22T14:22:07.793Z,101414.22
2023-02-22T14:26:23.007Z,101419.94
2023-02-22T14:30:30.638Z,101416.59
2023-02-22T14:34:53.962Z,101421.78
2023-02-22T14:39:02.842Z,101417.56
2023-02-22T14:43:12.455Z,101418.56
2023-02-22T14:47:20.956Z,101419.97
2023-02-22T14:51:42.392Z,101422.56
2023-02-22T14:55:50.799Z,101413.22
2023-02-22T15:00:19.738Z,101404.34
2023-02-22T15:04:27.023Z,101401.09
2023-02-22T15:08:29.144Z,101393.88
2023-02-22T15:12:30.596Z,101395.75
2023-02-22T15:16:34.134Z,101397.53
2023-02-22T15:20:38.192Z,101391.25
2023-02-22T15:24:39.669Z,101399.28
2023-02-22T15:28:42.346Z,101400.00
2023-02-22T15:33:01.217Z,101403.59
2023-02-22T15:37:25.747Z,101407.28
2023-02-22T15:41:32.177Z,101415.09
2023-02-22T15:45:33.867Z,101418.69
2023-02-22T15:49:37.811Z,101417.78
2023-02-22T15:53:48.172Z,101419.66
2023-02-22T15:57:50.869Z,101416.13
2023-02-22T16:01:53.921Z,101412.59
2023-02-22T16:05:56.944Z,101410.78
2023-02-22T16:09:58.812Z,101400.06
2023-02-22T16:14:04.656Z,101406.41
2023-02-22T16:18:25.942Z,101410.84
2023-02-22T16:22:33.623Z,101422.31
2023-02-22T16:26:35.044Z,101416.13
2023-02-22T16:30:39.403Z,101420.53
2023-02-22T16:34:41.083Z,101425.84
2023-02-22T16:38:45.017Z,101419.56
2023-02-22T16:42:46.414Z,101424.75
2023-02-22T16:46:47.868Z,101414.28
2023-02-22T16:50:51.701Z,101416.13
2023-02-22T16:54:53.252Z,101414.25
2023-02-22T16:58:54.869Z,101408.13
2023-02-22T17:03:03.735Z,101405.41
2023-02-22T17:07:05.525Z,101393.81
2023-02-22T17:11:09.748Z,101391.31
2023-02-22T17:15:19.213Z,101396.50
2023-02-22T17:19:26.511Z,101394.81
2023-02-22T17:23:28.383Z,101388.66
2023-02-22T17:27:29.879Z,101378.06
2023-02-22T17:31:31.738Z,101387.72
2023-02-22T17:35:38.734Z,101392.03
2023-02-22T17:39:40.222Z,101395.69
2023-02-22T17:43:41.734Z,101397.47
2023-02-22T17:47:44.004Z,101401.00
2023-02-22T17:51:49.503Z,101399.22
2023-02-22T17:55:51.376Z,101403.53
2023-02-22T17:59:52.901Z,101407.97
2023-02-22T18:03:56.322Z,101406.19
2023-02-22T18:07:57.741Z,101401.00
2023-02-22T18:11:59.197Z,101396.59
2023-02-22T18:16:00.804Z,101403.47
2023-02-22T18:20:02.518Z,101403.47
2023-02-22T18:24:04.342Z,101397.34
2023-02-22T18:28:07.525Z,101403.69
2023-02-22T18:32:13.214Z,101401.72
2023-02-22T18:36:22.767Z,101402.66
2023-02-22T18:40:24.698Z,101402.50
2023-02-22T18:44:27.090Z,101389.25
2023-02-22T18:48:28.606Z,101379.66
2023-02-22T18:52:30.993Z,101379.63
2023-02-22T18:56:33.890Z,101371.72
2023-02-22T19:00:35.461Z,101373.50
2023-02-22T19:04:36.947Z,101370.81
2023-02-22T19:08:40.245Z,101371.72
2023-02-22T19:12:41.695Z,101373.47
2023-02-22T19:16:46.606Z,101368.19
2023-02-22T19:20:56.151Z,101358.47
2023-02-22T19:24:57.888Z,101350.59
2023-02-22T19:29:04.757Z,101348.88
2023-02-22T19:33:06.289Z,101343.53
2023-02-22T19:37:07.969Z,101338.28
2023-02-22T19:41:17.675Z,101331.09
2023-02-22T19:45:20.259Z,101325.03
2023-02-22T19:49:22.828Z,101324.91
2023-02-22T19:53:24.305Z,101321.44
2023-02-22T19:57:26.676Z,101321.47
2023-02-22T20:01:31.839Z,101334.75
2023-02-22T20:05:36.846Z,101333.75
2023-02-22T20:09:43.066Z,101344.38
2023-02-22T20:13:44.951Z,101342.66
2023-02-22T20:17:50.252Z,101346.13
2023-02-22T20:21:52.820Z,101342.69
2023-02-22T20:25:55.689Z,101345.28
2023-02-22T20:29:57.287Z,101339.19
2023-02-22T20:34:00.350Z,101331.19
2023-02-22T20:38:02.747Z,101335.50
2023-02-22T20:42:06.677Z,101336.44
2023-02-22T20:46:08.254Z,101333.72
2023-02-22T20:50:09.863Z,101333.88
2023-02-22T20:54:12.317Z,101335.66
2023-02-22T20:58:13.884Z,101333.03
2023-02-22T21:02:15.356Z,101341.75
2023-02-22T21:06:21.359Z,101339.13
2023-02-22T21:10:22.990Z,101340.94
2023-02-22T21:14:25.366Z,101338.00
2023-02-22T21:18:27.117Z,101335.59
2023-02-22T21:22:29.113Z,101335.59
2023-02-22T21:26:33.396Z,101332.03
2023-02-22T21:30:34.953Z,101328.41
2023-02-22T21:34:36.639Z,101331.06
2023-02-22T21:38:41.051Z,101320.50
2023-02-22T21:42:42.512Z,101321.38
2023-02-22T21:46:44.245Z,101313.47
2023-02-22T21:50:46.322Z,101311.66
2023-02-22T21:54:47.990Z,101310.00
2023-02-22T21:59:00.977Z,101302.84
2023-02-22T22:03:20.126Z,101294.78
2023-02-22T22:07:22.863Z,101298.38
2023-02-22T22:11:25.182Z,101291.44
2023-02-22T22:15:27.821Z,101289.66
2023-02-22T22:19:30.953Z,101294.03
2023-02-22T22:23:33.170Z,101295.88
2023-02-22T22:27:34.625Z,101284.34
2023-02-22T22:31:36.158Z,101278.13
2023-02-22T22:35:41.815Z,101281.66
2023-02-22T22:39:43.377Z,101279.97
2023-02-22T22:43:46.047Z,101272.91
2023-02-22T22:47:48.173Z,101277.25
2023-02-22T22:51:49.610Z,101277.09
2023-02-22T22:55:51.022Z,101278.09
2023-02-22T22:59:54.041Z,101275.47
2023-02-22T23:04:01.612Z,101274.47
2023-02-22T23:08:10.472Z,101280.59
2023-02-22T23:12:17.621Z,101277.94
2023-02-22T23:16:19.806Z,101270.88
2023-02-22T23:20:22.670Z,101266.53
2023-02-22T23:24:27.306Z,101268.25
2023-02-22T23:28:29.376Z,101279.75
2023-02-22T23:32:30.905Z,101270.00
2023-02-22T23:36:32.469Z,101276.09
2023-02-22T23:40:33.948Z,101266.50
2023-02-22T23:44:35.865Z,101267.38
2023-02-22T23:48:46.530Z,101269.16
2023-02-22T23:52:49.478Z,101268.25
2023-02-22T23:56:56.614Z,101257.72
